createdAt,value
2023-08-22T00:01:10.403Z,53.41
2023-08-22T00:03:37.239Z,54.28
2023-08-22T00:06:04.674Z,54.42
2023-08-22T00:08:31.399Z,54.24
2023-08-22T00:11:00.239Z,53.59
2023-08-22T00:13:27.308Z,53.89
2023-08-22T00:16:00.034Z,55.50
2023-08-22T00:18:27.321Z,55.98
2023-08-22T00:20:54.415Z,55.93
2023-08-22T00:23:21.250Z,56.43
2023-08-22T00:25:48.072Z,56.29
2023-08-22T00:28:15.461Z,57.15
2023-08-22T00:30:42.411Z,57.24
2023-08-22T00:33:09.264Z,56.59
2023-08-22T00:35:35.932Z,56.61
2023-08-22T00:38:02.719Z,56.16
2023-08-22T00:40:29.427Z,56.11
2023-08-22T00:42:56.105Z,56.23
2023-08-22T00:45:22.830Z,55.88
2023-08-22T00:47:49.596Z,55.90
2023-08-22T00:50:17.125Z,56.17
2023-08-22T00:52:43.825Z,56.12
2023-08-22T00:55:10.501Z,56.27
2023-08-22T00:57:37.995Z,56.37
2023-08-22T01:00:07.373Z,56.44
2023-08-22T01:02:34.245Z,56.40
2023-08-22T01:05:01.457Z,56.35
2023-08-22T01:07:43.269Z,55.82
2023-08-22T01:10:21.492Z,56.38
2023-08-22T01:12:57.351Z,56.28
2023-08-22T01:15:28.112Z,56.51
2023-08-22T01:17:58.459Z,56.71
2023-08-22T01:20:26.364Z,56.16
2023-08-22T01:22:53.045Z,56.46
2023-08-22T01:25:20.084Z,56.65
2023-08-22T01:27:59.667Z,56.53
2023-08-22T01:30:48.765Z,56.85
2023-08-22T01:33:39.443Z,56.92
2023-08-22T01:36:07.495Z,57.20
2023-08-22T01:38:34.225Z,57.05
2023-08-22T01:41:00.949Z,57.35
2023-08-22T01:43:27.839Z,57.28
2023-08-22T01:45:54.809Z,57.08
2023-08-22T01:48:21.511Z,57.72
2023-08-22T01:50:48.318Z,58.19
2023-08-22T01:53:14.985Z,58.39
2023-08-22T01:55:41.708Z,58.72
2023-08-22T01:58:12.411Z,58.26
2023-08-22T02:00:40.002Z,58.67
2023-08-22T02:03:07.410Z,58.74
2023-08-22T02:05:34.213Z,58.92
2023-08-22T02:08:01.308Z,59.29
2023-08-22T02:10:27.980Z,59.35
2023-08-22T02:12:54.795Z,59.28
2023-08-22T02:15:22.372Z,59.16
2023-08-22T02:17:49.652Z,58.85
2023-08-22T02:20:16.472Z,59.04
2023-08-22T02:22:43.203Z,59.61
2023-08-22T02:25:10.086Z,59.24
2023-08-22T02:27:38.875Z,59.47
2023-08-22T02:30:09.312Z,59.51
2023-08-22T02:32:36.099Z,59.78
2023-08-22T02:35:04.472Z,59.90
2023-08-22T02:37:31.198Z,60.16
2023-08-22T02:39:57.920Z,59.91
2023-08-22T02:42:24.648Z,60.27
2023-08-22T02:44:51.345Z,60.24
2023-08-22T02:47:19.439Z,59.56
2023-08-22T02:49:46.242Z,59.89
2023-08-22T02:52:12.957Z,59.87
2023-08-22T02:54:39.679Z,59.89
2023-08-22T02:57:06.432Z,60.54
2023-08-22T02:59:33.148Z,60.29
2023-08-22T03:01:59.885Z,60.54
2023-08-22T03:04:26.821Z,60.83
2023-08-22T03:06:53.616Z,60.43
2023-08-22T03:09:20.333Z,60.52
2023-08-22T03:11:47.069Z,60.66
2023-08-22T03:14:13.835Z,61.44
2023-08-22T03:16:40.716Z,61.44
2023-08-22T03:19:07.507Z,61.11
2023-08-22T03:21:34.204Z,61.24
2023-08-22T03:24:00.880Z,61.45
2023-08-22T03:26:27.715Z,61.31
2023-08-22T03:28:54.436Z,60.84
2023-08-22T03:31:23.387Z,60.34
2023-08-22T03:33:50.189Z,60.36
2023-08-22T03:36:16.849Z,60.05
2023-08-22T03:38:43.609Z,59.87
2023-08-22T03:41:10.453Z,60.49
2023-08-22T03:43:37.135Z,60.72
2023-08-22T03:46:03.837Z,60.24
2023-08-22T03:48:30.716Z,60.22
2023-08-22T03:50:57.484Z,60.32
2023-08-22T03:53:24.220Z,60.66
2023-08-22T03:55:50.936Z,60.58
2023-08-22T03:58:17.660Z,60.63
2023-08-22T04:00:44.479Z,60.75
2023-08-22T04:03:11.393Z,60.96
2023-08-22T04:05:38.286Z,60.59
2023-08-22T04:08:05.617Z,60.92
2023-08-22T04:10:32.407Z,60.58
2023-08-22T04:12:59.096Z,61.40
2023-08-22T04:15:25.790Z,60.86
2023-08-22T04:17:52.544Z,61.23
2023-08-22T04:20:19.221Z,61.29
2023-08-22T04:22:45.907Z,60.87
2023-08-22T04:25:12.686Z,61.43
2023-08-22T04:27:40.063Z,61.62
2023-08-22T04:30:07.499Z,61.09
2023-08-22T04:32:34.344Z,61.21
2023-08-22T04:35:01.096Z,61.43
2023-08-22T04:37:28.284Z,62.30
2023-08-22T04:39:55.099Z,62.57
2023-08-22T04:42:21.848Z,62.58
2023-08-22T04:44:48.581Z,62.38
2023-08-22T04:47:15.299Z,62.78
2023-08-22T04:49:41.981Z,63.41
2023-08-22T04:52:08.761Z,63.19
2023-08-22T04:54:35.662Z,63.47
2023-08-22T04:57:02.366Z,63.25
2023-08-22T04:59:29.091Z,61.65
2023-08-22T05:01:55.965Z,62.39
2023-08-22T05:04:22.757Z,61.29
2023-08-22T05:06:49.472Z,61.05
2023-08-22T05:09:16.387Z,60.87
2023-08-22T05:11:43.192Z,59.20
2023-08-22T05:14:10.449Z,59.73
2023-08-22T05:16:37.438Z,59.96
2023-08-22T05:19:05.047Z,58.16
2023-08-22T05:21:31.798Z,58.72
2023-08-22T05:23:58.600Z,58.26
2023-08-22T05:26:25.470Z,57.74
2023-08-22T05:28:52.137Z,56.84
2023-08-22T05:31:22.934Z,54.75
2023-08-22T05:33:50.060Z,52.20
2023-08-22T05:36:16.875Z,52.46
2023-08-22T05:38:43.627Z,50.51
2023-08-22T05:41:10.405Z,50.34
2023-08-22T05:43:37.266Z,48.18
2023-08-22T05:46:04.241Z,48.27
2023-08-22T05:48:31.290Z,48.84
2023-08-22T05:50:59.348Z,49.05
2023-08-22T05:53:26.127Z,46.17
2023-08-22T05:55:53.002Z,47.56
2023-08-22T05:58:19.857Z,46.74
2023-08-22T06:00:46.652Z,45.11
2023-08-22T06:03:13.651Z,44.95
2023-08-22T06:05:41.446Z,44.76
2023-08-22T06:08:08.043Z,44.17
2023-08-22T06:10:34.828Z,42.91
2023-08-22T06:13:01.524Z,43.37
2023-08-22T06:15:28.214Z,43.67
2023-08-22T06:17:55.009Z,42.99
2023-08-22T06:20:21.755Z,42.45
2023-08-22T06:22:48.469Z,40.34
2023-08-22T06:25:15.327Z,41.29
2023-08-22T06:27:42.559Z,40.74
2023-08-22T06:30:09.825Z,39.98
2023-08-22T06:32:36.587Z,40.66
2023-08-22T06:35:05.298Z,40.33
2023-08-22T06:37:32.195Z,39.09
2023-08-22T06:39:58.942Z,39.66
2023-08-22T06:42:25.873Z,39.28
2023-08-22T06:44:54.244Z,37.83
2023-08-22T06:47:22.027Z,37.66
2023-08-22T06:49:48.932Z,37.68
2023-08-22T06:52:15.685Z,38.58
2023-08-22T06:54:42.461Z,38.05
2023-08-22T06:57:09.166Z,39.92
2023-08-22T06:59:35.852Z,37.52
2023-08-22T07:02:02.569Z,37.19
2023-08-22T07:04:31.274Z,37.70
2023-08-22T07:06:58.248Z,37.48
2023-08-22T07:09:25.068Z,37.36
2023-08-22T07:11:51.818Z,37.58
2023-08-22T07:14:18.552Z,38.49
2023-08-22T07:16:45.328Z,37.18
2023-08-22T07:19:12.074Z,36.63
2023-08-22T07:21:38.823Z,37.82
2023-08-22T07:24:05.913Z,38.99
2023-08-22T07:26:32.631Z,36.01
2023-08-22T07:29:00.168Z,38.73
2023-08-22T07:31:26.971Z,38.66
2023-08-22T07:33:53.890Z,38.00
2023-08-22T07:36:22.585Z,36.30
2023-08-22T07:38:49.317Z,35.96
2023-08-22T07:41:16.184Z,37.31
2023-08-22T07:43:42.924Z,34.50
2023-08-22T07:46:09.756Z,35.62
2023-08-22T07:48:36.519Z,36.12
2023-08-22T07:51:03.251Z,35.96
2023-08-22T07:53:30.113Z,34.78
2023-08-22T07:55:56.846Z,35.88
2023-08-22T07:58:23.608Z,35.67
2023-08-22T08:00:50.474Z,34.82
2023-08-22T08:03:17.509Z,34.55
2023-08-22T08:05:44.330Z,35.82
2023-08-22T08:08:11.084Z,33.89
2023-08-22T08:10:38.016Z,32.79
2023-08-22T08:13:04.860Z,33.88
2023-08-22T08:15:31.696Z,34.17
2023-08-22T08:18:00.541Z,33.50
2023-08-22T08:20:27.320Z,32.64
2023-08-22T08:22:53.991Z,31.53
2023-08-22T08:25:20.743Z,31.59
2023-08-22T08:27:50.947Z,31.74
2023-08-22T08:30:18.056Z,31.01
2023-08-22T08:32:45.320Z,31.25
2023-08-22T08:35:12.485Z,31.43
2023-08-22T08:37:39.213Z,31.15
2023-08-22T08:40:09.731Z,31.49
2023-08-22T08:42:37.782Z,33.21
2023-08-22T08:45:08.180Z,32.03
2023-08-22T08:47:35.117Z,32.67
2023-08-22T08:50:02.252Z,32.23
2023-08-22T08:52:29.007Z,32.40
2023-08-22T08:54:55.715Z,32.71
2023-08-22T08:57:23.272Z,34.24
2023-08-22T08:59:49.915Z,33.05
2023-08-22T09:02:17.513Z,32.70
2023-08-22T09:04:44.437Z,32.75
2023-08-22T09:07:11.246Z,33.17
2023-08-22T09:09:37.953Z,32.45
2023-08-22T09:12:07.152Z,32.14
2023-08-22T09:14:33.997Z,32.26
2023-08-22T09:17:02.354Z,33.99
2023-08-22T09:19:33.481Z,32.23
2023-08-22T09:22:04.593Z,32.82
2023-08-22T09:24:31.975Z,31.43
2023-08-22T09:26:59.151Z,30.14
2023-08-22T09:29:35.015Z,32.17
2023-08-22T09:32:05.921Z,31.10
2023-08-22T09:34:33.641Z,30.26
2023-08-22T09:37:00.624Z,29.69
2023-08-22T09:39:27.649Z,30.80
2023-08-22T09:41:58.608Z,31.04
2023-08-22T09:44:27.013Z,30.48
2023-08-22T09:46:55.191Z,30.38
2023-08-22T09:49:22.560Z,31.12
2023-08-22T09:51:50.849Z,31.05
2023-08-22T09:54:17.906Z,31.38
2023-08-22T09:56:44.971Z,31.64
2023-08-22T09:59:17.802Z,32.22
2023-08-22T10:01:44.677Z,32.60
2023-08-22T10:04:12.032Z,31.84
2023-08-22T10:06:46.408Z,32.01
2023-08-22T10:09:14.412Z,32.34
2023-08-22T10:11:55.620Z,32.43
2023-08-22T10:14:37.474Z,32.77
2023-08-22T10:17:05.207Z,32.16
2023-08-22T10:19:32.067Z,33.57
2023-08-22T10:22:09.140Z,32.02
2023-08-22T10:24:36.695Z,31.44
2023-08-22T10:27:13.568Z,30.95
2023-08-22T10:29:48.084Z,31.38
2023-08-22T10:32:14.775Z,33.35
2023-08-22T10:34:41.770Z,32.98
2023-08-22T10:37:21.260Z,33.99
2023-08-22T10:39:48.915Z,33.08
2023-08-22T10:42:22.794Z,33.86
2023-08-22T10:44:50.779Z,32.29
2023-08-22T10:47:21.136Z,32.05
2023-08-22T10:50:13.025Z,31.78
2023-08-22T10:52:42.594Z,33.44
2023-08-22T10:55:13.587Z,32.43
2023-08-22T10:57:42.540Z,31.98
2023-08-22T11:00:32.391Z,32.37
2023-08-22T11:02:59.564Z,33.85
2023-08-22T11:05:28.332Z,33.61
2023-08-22T11:07:55.271Z,33.77
2023-08-22T11:10:23.167Z,34.64
2023-08-22T11:12:50.789Z,33.58
2023-08-22T11:15:18.410Z,31.42
2023-08-22T11:17:48.273Z,33.18
2023-08-22T11:20:16.230Z,30.65
2023-08-22T11:22:44.361Z,30.54
2023-08-22T11:25:14.558Z,31.07
2023-08-22T11:27:41.712Z,31.14
2023-08-22T11:30:09.625Z,30.83
2023-08-22T11:32:38.001Z,30.42
2023-08-22T11:35:06.436Z,31.08
2023-08-22T11:37:35.061Z,30.00
2023-08-22T11:40:02.007Z,30.77
2023-08-22T11:42:31.930Z,30.20
2023-08-22T11:45:04.764Z,30.54
2023-08-22T11:47:51.541Z,32.06
2023-08-22T11:50:18.317Z,31.59
2023-08-22T11:52:45.996Z,31.33
2023-08-22T11:55:13.716Z,32.79
2023-08-22T11:57:41.849Z,33.34
2023-08-22T12:00:12.276Z,33.33
2023-08-22T12:02:43.399Z,32.10
2023-08-22T12:05:10.369Z,32.52
2023-08-22T12:07:44.235Z,32.78
2023-08-22T12:10:13.945Z,32.20
2023-08-22T12:12:40.770Z,31.43
2023-08-22T12:15:07.865Z,32.64
2023-08-22T12:17:34.693Z,31.56
2023-08-22T12:20:02.066Z,30.82
2023-08-22T12:22:28.780Z,31.61
2023-08-22T12:24:55.619Z,31.77
2023-08-22T12:27:22.644Z,31.24
2023-08-22T12:29:49.562Z,31.41
2023-08-22T12:32:16.325Z,31.46
2023-08-22T12:34:43.082Z,30.97
2023-08-22T12:37:09.865Z,30.61
2023-08-22T12:39:36.653Z,31.45
2023-08-22T12:42:03.775Z,32.15
2023-08-22T12:44:32.794Z,31.23
2023-08-22T12:47:00.796Z,30.78
2023-08-22T12:49:27.550Z,30.33
2023-08-22T12:51:54.345Z,31.54
2023-08-22T12:54:21.032Z,31.26
2023-08-22T12:56:47.868Z,31.78
2023-08-22T12:59:14.575Z,32.15
2023-08-22T13:01:41.721Z,31.31
2023-08-22T13:04:14.022Z,32.25
2023-08-22T13:06:41.169Z,32.55
2023-08-22T13:09:11.713Z,32.10
2023-08-22T13:11:42.223Z,33.63
2023-08-22T13:14:10.966Z,31.96
2023-08-22T13:16:39.867Z,31.33
2023-08-22T13:19:07.085Z,31.11
2023-08-22T13:21:34.962Z,31.61
2023-08-22T13:24:02.006Z,31.88
2023-08-22T13:26:30.163Z,30.65
2023-08-22T13:28:56.934Z,31.37
2023-08-22T13:31:23.747Z,31.32
2023-08-22T13:33:50.504Z,31.63
2023-08-22T13:36:17.302Z,32.31
2023-08-22T13:38:44.019Z,32.66
2023-08-22T13:41:10.785Z,31.98
2023-08-22T13:43:39.984Z,31.50
2023-08-22T13:46:07.568Z,31.40
2023-08-22T13:48:34.780Z,32.07
2023-08-22T13:51:01.524Z,31.80
2023-08-22T13:53:32.345Z,31.28
2023-08-22T13:55:59.463Z,31.50
2023-08-22T13:58:26.164Z,32.17
2023-08-22T14:00:52.896Z,31.96
2023-08-22T14:03:19.711Z,31.36
2023-08-22T14:05:46.660Z,32.25
2023-08-22T14:08:13.405Z,32.27
2023-08-22T14:10:40.129Z,32.25
2023-08-22T14:13:06.883Z,32.56
2023-08-22T14:15:33.594Z,33.41
2023-08-22T14:18:00.334Z,32.44
2023-08-22T14:20:27.101Z,32.77
2023-08-22T14:22:53.833Z,33.44
2023-08-22T14:25:20.568Z,33.01
2023-08-22T14:27:47.563Z,33.92
2023-08-22T14:30:14.659Z,34.67
2023-08-22T14:32:41.426Z,34.57
2023-08-22T14:35:08.492Z,34.84
2023-08-22T14:37:35.245Z,35.36
2023-08-22T14:40:02.010Z,34.24
2023-08-22T14:42:28.761Z,35.83
2023-08-22T14:44:55.469Z,34.34
2023-08-22T14:47:22.198Z,34.75
2023-08-22T14:49:48.986Z,34.00
2023-08-22T14:52:15.704Z,34.34
2023-08-22T14:54:42.425Z,34.73
2023-08-22T14:57:09.134Z,34.88
2023-08-22T14:59:35.892Z,36.92
2023-08-22T15:02:02.940Z,36.25
2023-08-22T15:04:30.026Z,35.12
2023-08-22T15:06:57.455Z,34.81
2023-08-22T15:09:24.125Z,36.19
2023-08-22T15:11:50.888Z,36.46
2023-08-22T15:14:17.600Z,37.17
2023-08-22T15:16:44.335Z,36.04
2023-08-22T15:19:12.840Z,35.60
2023-08-22T15:21:40.091Z,35.24
2023-08-22T15:24:07.064Z,35.39
2023-08-22T15:26:33.995Z,36.26
2023-08-22T15:29:00.679Z,36.19
2023-08-22T15:31:27.951Z,36.48
2023-08-22T15:33:54.743Z,36.71
2023-08-22T15:36:21.426Z,37.35
2023-08-22T15:38:48.184Z,37.63
2023-08-22T15:41:14.904Z,38.17
2023-08-22T15:43:41.611Z,37.47
2023-08-22T15:46:08.467Z,38.15
2023-08-22T15:48:35.216Z,39.55
2023-08-22T15:51:01.909Z,39.86
2023-08-22T15:53:28.639Z,38.02
2023-08-22T15:55:55.507Z,38.98
2023-08-22T15:58:22.283Z,39.13
2023-08-22T16:00:49.077Z,40.15
2023-08-22T16:03:15.997Z,38.72
2023-08-22T16:05:42.793Z,38.97
2023-08-22T16:08:09.552Z,39.76
2023-08-22T16:10:36.285Z,39.52
2023-08-22T16:13:03.057Z,40.47
2023-08-22T16:15:30.765Z,40.11
2023-08-22T16:17:58.710Z,39.29
2023-08-22T16:20:25.612Z,39.69
2023-08-22T16:22:52.268Z,39.59
2023-08-22T16:25:19.078Z,40.51
2023-08-22T16:27:45.753Z,40.16
2023-08-22T16:30:13.088Z,41.22
2023-08-22T16:32:39.776Z,41.34
2023-08-22T16:35:07.064Z,41.28
2023-08-22T16:37:33.813Z,40.64
2023-08-22T16:40:00.578Z,41.38
2023-08-22T16:42:27.388Z,41.95
2023-08-22T16:44:54.103Z,42.49
2023-08-22T16:47:21.429Z,42.79
2023-08-22T16:49:48.674Z,43.31
2023-08-22T16:52:15.445Z,43.65
2023-08-22T16:54:42.207Z,44.09
2023-08-22T16:57:09.495Z,44.64
2023-08-22T16:59:39.114Z,44.45
2023-08-22T17:02:05.926Z,44.49
2023-08-22T17:04:32.690Z,44.88
2023-08-22T17:07:00.208Z,44.75
2023-08-22T17:09:28.062Z,45.14
2023-08-22T17:11:54.981Z,46.12
2023-08-22T17:14:21.845Z,46.01
2023-08-22T17:16:48.572Z,45.68
2023-08-22T17:19:15.885Z,46.50
2023-08-22T17:21:42.696Z,46.17
2023-08-22T17:24:10.053Z,46.10
2023-08-22T17:26:36.942Z,46.58
2023-08-22T17:29:03.899Z,46.90
2023-08-22T17:31:30.779Z,47.43
2023-08-22T17:33:57.495Z,46.53
2023-08-22T17:36:24.235Z,46.72
2023-08-22T17:38:51.811Z,47.30
2023-08-22T17:41:18.660Z,47.95
2023-08-22T17:43:45.476Z,47.43
2023-08-22T17:46:14.073Z,47.36
2023-08-22T17:48:41.249Z,47.63
2023-08-22T17:51:08.090Z,47.59
2023-08-22T17:53:34.812Z,47.83
2023-08-22T17:56:01.620Z,47.78
2023-08-22T17:58:28.410Z,47.97
2023-08-22T18:00:55.139Z,48.67
2023-08-22T18:03:22.191Z,47.45
2023-08-22T18:06:00.150Z,47.57
2023-08-22T18:08:26.946Z,48.10
2023-08-22T18:10:54.278Z,48.80
2023-08-22T18:13:21.185Z,48.22
2023-08-22T18:16:08.025Z,48.37
2023-08-22T18:18:39.436Z,48.48
2023-08-22T18:21:07.966Z,48.55
2023-08-22T18:23:34.876Z,49.47
2023-08-22T18:26:09.054Z,48.72
2023-08-22T18:28:35.850Z,49.40
2023-08-22T18:31:08.537Z,48.93
2023-08-22T18:33:35.539Z,49.46
2023-08-22T18:36:02.256Z,49.51
2023-08-22T18:38:28.982Z,49.76
2023-08-22T18:40:56.045Z,49.60
2023-08-22T18:43:22.793Z,49.69
2023-08-22T18:45:49.692Z,50.11
2023-08-22T18:48:16.803Z,49.97
2023-08-22T18:50:43.595Z,50.31
2023-08-22T18:53:10.475Z,50.10
2023-08-22T18:55:37.204Z,50.61
2023-08-22T18:58:04.426Z,50.82
2023-08-22T19:00:31.291Z,50.88
2023-08-22T19:02:58.498Z,51.43
2023-08-22T19:05:25.336Z,52.07
2023-08-22T19:07:53.123Z,51.38
2023-08-22T19:10:20.091Z,51.48
2023-08-22T19:12:46.903Z,51.51
2023-08-22T19:15:13.609Z,51.67
2023-08-22T19:17:40.612Z,52.25
2023-08-22T19:20:07.751Z,52.48
2023-08-22T19:22:35.322Z,52.82
2023-08-22T19:25:02.222Z,52.96
2023-08-22T19:27:29.766Z,53.29
2023-08-22T19:29:56.646Z,53.51
2023-08-22T19:32:36.667Z,54.16
2023-08-22T19:35:09.257Z,54.29
2023-08-22T19:37:35.960Z,53.32
2023-08-22T19:40:02.699Z,53.52
2023-08-22T19:42:29.418Z,53.55
2023-08-22T19:44:56.334Z,53.67
2023-08-22T19:47:23.460Z,53.02
2023-08-22T19:49:50.978Z,53.62
2023-08-22T19:52:17.998Z,54.08
2023-08-22T19:54:44.972Z,54.30
2023-08-22T19:57:11.712Z,54.30
2023-08-22T19:59:38.575Z,53.81
2023-08-22T20:02:05.875Z,54.41
2023-08-22T20:04:32.735Z,53.70
2023-08-22T20:06:59.486Z,53.47
2023-08-22T20:09:26.240Z,53.52
2023-08-22T20:11:52.972Z,53.38
2023-08-22T20:14:19.706Z,53.32
2023-08-22T20:16:46.455Z,52.93
2023-08-22T20:19:13.512Z,52.92
2023-08-22T20:21:40.194Z,52.68
2023-08-22T20:24:06.914Z,52.97
2023-08-22T20:26:40.304Z,52.22
2023-08-22T20:29:08.972Z,53.01
2023-08-22T20:31:36.696Z,53.34
2023-08-22T20:34:03.573Z,53.32
2023-08-22T20:36:30.258Z,53.37
2023-08-22T20:39:00.643Z,53.30
2023-08-22T20:41:29.189Z,53.54
2023-08-22T20:43:57.193Z,53.70
2023-08-22T20:46:24.061Z,54.33
2023-08-22T20:48:52.184Z,54.10
2023-08-22T20:51:18.946Z,53.66
2023-08-22T20:53:45.683Z,53.99
2023-08-22T20:56:12.471Z,53.56
2023-08-22T20:58:39.159Z,53.40
2023-08-22T21:01:05.953Z,53.22
2023-08-22T21:03:32.768Z,53.13
2023-08-22T21:05:59.524Z,53.22
2023-08-22T21:08:26.440Z,53.24
2023-08-22T21:10:53.190Z,53.78
2023-08-22T21:13:19.836Z,53.64
2023-08-22T21:15:46.568Z,53.64
2023-08-22T21:18:13.428Z,53.97
2023-08-22T21:20:40.244Z,54.20
2023-08-22T21:23:10.059Z,53.72
2023-08-22T21:25:37.340Z,54.22
2023-08-22T21:28:04.263Z,54.61
2023-08-22T21:30:31.053Z,54.62
2023-08-22T21:32:57.838Z,54.74
2023-08-22T21:35:24.898Z,54.96
2023-08-22T21:37:51.668Z,54.98
2023-08-22T21:40:18.407Z,54.69
2023-08-22T21:42:45.524Z,55.31
2023-08-22T21:45:15.938Z,55.55
2023-08-22T21:47:42.947Z,55.53
2023-08-22T21:50:10.095Z,56.03
2023-08-22T21:52:37.707Z,55.62
2023-08-22T21:55:05.080Z,56.10
2023-08-22T21:57:32.708Z,56.29
2023-08-22T21:59:59.398Z,56.26
2023-08-22T22:02:26.145Z,56.68
2023-08-22T22:04:52.985Z,56.75
2023-08-22T22:07:19.802Z,57.03
2023-08-22T22:09:46.577Z,57.17
2023-08-22T22:12:13.284Z,57.11
2023-08-22T22:14:40.161Z,57.34
2023-08-22T22:17:07.115Z,57.48
2023-08-22T22:19:33.930Z,57.08
2023-08-22T22:22:00.698Z,57.46
2023-08-22T22:24:27.378Z,57.13
2023-08-22T22:26:54.094Z,57.39
2023-08-22T22:29:20.900Z,57.59
2023-08-22T22:31:47.615Z,57.85
2023-08-22T22:34:14.316Z,57.97
2023-08-22T22:36:41.062Z,58.14
2023-08-22T22:39:07.804Z,58.35
2023-08-22T22:41:34.880Z,58.77
2023-08-22T22:44:01.603Z,59.33
2023-08-22T22:46:28.371Z,59.58
2023-08-22T22:48:55.082Z,59.36
2023-08-22T22:51:21.815Z,59.15
2023-08-22T22:53:48.574Z,59.34
2023-08-22T22:56:15.371Z,59.17
2023-08-22T22:58:42.054Z,58.99
2023-08-22T23:01:09.593Z,59.62
2023-08-22T23:03:36.615Z,59.65
2023-08-22T23:06:09.787Z,59.86
2023-08-22T23:08:36.652Z,59.83
2023-08-22T23:11:05.088Z,59.83
2023-08-22T23:13:35.862Z,59.66
2023-08-22T23:16:02.584Z,59.91
2023-08-22T23:18:29.347Z,60.32
2023-08-22T23:20:56.129Z,60.46
2023-08-22T23:23:22.829Z,60.47
2023-08-22T23:25:52.634Z,60.33
2023-08-22T23:28:19.377Z,60.09
2023-08-22T23:30:46.113Z,60.32
2023-08-22T23:33:13.533Z,60.12
2023-08-22T23:35:40.430Z,60.11
2023-08-22T23:38:08.601Z,60.22
2023-08-22T23:40:35.805Z,59.82
2023-08-22T23:43:02.620Z,59.90
2023-08-22T23:45:31.311Z,60.16
2023-08-22T23:47:58.462Z,60.15
2023-08-22T23:50:25.308Z,60.61
2023-08-22T23:52:51.969Z,60.91
2023-08-22T23:55:21.775Z,60.69
2023-08-22T23:57:50.016Z,60.54
